createdAt,value
2022-11-27T00:00:10.155Z,17.43
2022-11-27T00:05:16.589Z,16.60
2022-11-27T00:10:20.367Z,15.80
2022-11-27T00:15:22.614Z,16.40
2022-11-27T00:20:29.711Z,16.90
2022-11-27T00:25:32.098Z,16.50
2022-11-27T00:30:33.779Z,14.83
2022-11-27T00:35:35.433Z,15.70
2022-11-27T00:40:37.159Z,15.53
2022-11-27T00:45:38.961Z,14.43
2022-11-27T00:50:42.690Z,15.30
2022-11-27T00:55:51.996Z,12.87
2022-11-27T01:00:57.437Z,13.03
2022-11-27T01:06:06.281Z,12.87
2022-11-27T01:11:08.170Z,14.00
2022-11-27T01:16:16.423Z,13.27
2022-11-27T01:21:20.081Z,11.77
2022-11-27T01:26:24.603Z,12.40
2022-11-27T01:31:28.772Z,11.87
2022-11-27T01:36:31.999Z,11.03
2022-11-27T01:41:39.783Z,11.23
2022-11-27T01:46:48.786Z,11.30
2022-11-27T01:52:15.355Z,12.27
2022-11-27T01:57:24.104Z,11.60
2022-11-27T02:02:28.661Z,12.00
2022-11-27T02:07:36.544Z,11.93
2022-11-27T02:12:47.076Z,13.00
2022-11-27T02:18:11.676Z,11.10
2022-11-27T02:23:40.528Z,11.33
2022-11-27T02:28:51.032Z,11.23
2022-11-27T02:33:55.219Z,10.60
2022-11-27T02:39:06.045Z,10.57
2022-11-27T02:44:09.310Z,11.53
2022-11-27T02:49:16.977Z,10.87
2022-11-27T02:54:27.860Z,10.47
2022-11-27T02:59:33.937Z,9.60
2022-11-27T03:04:41.886Z,9.97
2022-11-27T03:09:48.796Z,9.60
2022-11-27T03:14:53.015Z,9.40
2022-11-27T03:19:58.862Z,9.20
2022-11-27T03:25:01.074Z,9.33
2022-11-27T03:30:09.864Z,8.93
2022-11-27T03:35:15.621Z,8.83
2022-11-27T03:40:18.294Z,8.40
2022-11-27T03:45:50.281Z,8.37
2022-11-27T03:51:18.976Z,8.43
2022-11-27T03:56:41.910Z,8.00
2022-11-27T04:01:43.799Z,9.13
2022-11-27T04:06:50.089Z,8.53
2022-11-27T04:11:51.759Z,8.40
2022-11-27T04:17:00.299Z,8.00
2022-11-27T04:22:04.042Z,10.10
2022-11-27T04:27:05.723Z,8.70
2022-11-27T04:32:10.233Z,9.73
2022-11-27T04:37:11.975Z,9.37
2022-11-27T04:42:16.915Z,9.80
2022-11-27T04:47:20.887Z,10.00
2022-11-27T04:52:24.821Z,10.43
2022-11-27T04:57:28.852Z,9.60
2022-11-27T05:02:30.638Z,10.97
2022-11-27T05:07:32.460Z,10.73
2022-11-27T05:12:34.194Z,11.97
2022-11-27T05:17:35.883Z,11.30
2022-11-27T05:22:40.238Z,13.00
2022-11-27T05:27:48.875Z,13.37
2022-11-27T05:32:55.302Z,14.00
2022-11-27T05:37:59.173Z,14.70
2022-11-27T05:43:07.184Z,16.00
2022-11-27T05:48:10.947Z,17.10
2022-11-27T05:53:12.670Z,15.73
2022-11-27T05:58:18.966Z,16.80
2022-11-27T06:03:20.673Z,16.87
2022-11-27T06:08:22.634Z,16.37
2022-11-27T06:13:24.377Z,16.57
2022-11-27T06:18:26.024Z,16.10
2022-11-27T06:23:27.708Z,17.47
2022-11-27T06:28:29.353Z,17.53
2022-11-27T06:33:31.178Z,17.53
2022-11-27T06:38:36.728Z,16.40
2022-11-27T06:43:41.609Z,18.37
2022-11-27T06:48:50.928Z,18.27
2022-11-27T06:53:56.170Z,17.67
2022-11-27T06:59:02.347Z,16.87
2022-11-27T07:04:04.610Z,16.87
2022-11-27T07:09:09.868Z,16.10
2022-11-27T07:14:11.741Z,18.57
2022-11-27T07:19:24.700Z,16.30
2022-11-27T07:24:27.096Z,17.70
2022-11-27T07:29:31.092Z,17.53
2022-11-27T07:34:34.852Z,15.60
2022-11-27T07:40:00.672Z,16.40
2022-11-27T07:45:00.616Z,15.60
2022-11-27T07:50:07.352Z,15.73
2022-11-27T07:55:11.890Z,16.33
2022-11-27T08:00:14.050Z,13.77
2022-11-27T08:05:18.100Z,14.17
2022-11-27T08:10:19.935Z,14.00
2022-11-27T08:15:26.343Z,13.70
2022-11-27T08:20:30.550Z,13.23
2022-11-27T08:25:35.005Z,13.63
2022-11-27T08:30:37.882Z,13.20
2022-11-27T08:35:48.470Z,11.90
2022-11-27T08:41:00.270Z,12.93
2022-11-27T08:46:06.951Z,11.63
2022-11-27T08:51:15.712Z,11.03
2022-11-27T08:56:21.991Z,12.53
2022-11-27T09:01:29.339Z,11.27
2022-11-27T09:06:36.375Z,11.60
2022-11-27T09:11:42.690Z,11.10
2022-11-27T09:16:48.231Z,12.13
2022-11-27T09:21:50.566Z,11.70
2022-11-27T09:26:52.401Z,11.60
2022-11-27T09:31:56.429Z,11.53
2022-11-27T09:36:58.245Z,11.53
2022-11-27T09:42:04.442Z,11.63
2022-11-27T09:47:18.733Z,11.63
2022-11-27T09:52:40.890Z,12.33
2022-11-27T09:57:54.622Z,11.20
2022-11-27T10:02:58.662Z,13.70
2022-11-27T10:08:17.085Z,11.83
2022-11-27T10:13:43.534Z,12.07
2022-11-27T10:18:54.541Z,11.60
2022-11-27T10:24:19.887Z,11.57
2022-11-27T10:29:27.458Z,12.27
2022-11-27T10:34:38.598Z,12.27
2022-11-27T10:39:45.243Z,11.93
2022-11-27T10:44:59.994Z,11.53
2022-11-27T10:50:16.043Z,13.20
2022-11-27T10:55:25.647Z,12.27
2022-11-27T11:00:31.741Z,14.40
2022-11-27T11:05:56.947Z,16.85
2022-11-27T11:10:57.546Z,13.90
2022-11-27T11:16:34.964Z,13.43
2022-11-27T11:21:42.567Z,17.13
2022-11-27T11:26:52.854Z,11.13
2022-11-27T11:31:55.643Z,25.67
2022-11-27T11:37:05.113Z,13.80
2022-11-27T11:42:27.690Z,12.63
2022-11-27T11:47:29.474Z,10.23
2022-11-27T11:53:02.266Z,9.80
2022-11-27T11:58:10.167Z,10.23
2022-11-27T12:03:29.742Z,10.53
2022-11-27T12:09:13.432Z,9.80
2022-11-27T12:14:29.746Z,9.90
2022-11-27T12:19:49.248Z,13.40
2022-11-27T12:25:03.875Z,10.63
2022-11-27T12:30:16.800Z,11.00
2022-11-27T12:35:34.893Z,11.90
2022-11-27T12:41:04.870Z,13.33
2022-11-27T12:46:32.460Z,11.93
2022-11-27T12:52:14.453Z,13.07
2022-11-27T12:57:34.294Z,12.37
2022-11-27T13:03:00.283Z,12.10
2022-11-27T13:08:13.192Z,12.40
2022-11-27T13:13:20.494Z,15.07
2022-11-27T13:18:43.948Z,36.27
2022-11-27T13:23:47.988Z,15.37
2022-11-27T13:28:53.405Z,16.30
2022-11-27T13:34:05.007Z,14.60
2022-11-27T13:39:18.945Z,21.90
2022-11-27T13:44:25.047Z,16.23
2022-11-27T13:49:33.169Z,13.13
2022-11-27T13:54:34.960Z,14.40
2022-11-27T13:59:39.449Z,13.47
2022-11-27T14:04:55.867Z,11.77
2022-11-27T14:10:12.830Z,16.07
2022-11-27T14:15:20.279Z,13.50
2022-11-27T14:20:51.824Z,20.97
2022-11-27T14:26:05.414Z,19.17
2022-11-27T14:31:40.928Z,11.87
2022-11-27T14:36:42.869Z,12.90
2022-11-27T14:41:44.587Z,12.77
2022-11-27T14:46:51.323Z,12.10
2022-11-27T14:51:56.090Z,13.23
2022-11-27T14:57:00.878Z,12.00
2022-11-27T15:02:14.181Z,12.03
2022-11-27T15:07:23.225Z,13.17
2022-11-27T15:12:32.533Z,13.53
2022-11-27T15:17:37.150Z,22.27
2022-11-27T15:22:49.595Z,20.90
2022-11-27T15:27:51.551Z,15.70
2022-11-27T15:32:56.844Z,14.30
2022-11-27T15:38:05.320Z,14.17
2022-11-27T15:43:14.896Z,13.90
2022-11-27T15:48:24.341Z,12.40
2022-11-27T15:53:28.579Z,13.53
2022-11-27T15:58:31.007Z,15.60
2022-11-27T16:03:35.760Z,12.10
2022-11-27T16:08:41.070Z,13.77
2022-11-27T16:13:43.863Z,13.80
2022-11-27T16:18:47.844Z,15.93
2022-11-27T16:23:56.445Z,13.47
2022-11-27T16:29:03.592Z,14.83
2022-11-27T16:34:06.628Z,15.13
2022-11-27T16:39:08.554Z,15.87
2022-11-27T16:44:16.682Z,17.07
2022-11-27T16:49:19.063Z,17.13
2022-11-27T16:54:28.503Z,16.67
2022-11-27T16:59:38.018Z,17.70
2022-11-27T17:04:45.988Z,17.97
2022-11-27T17:09:59.851Z,15.87
2022-11-27T17:15:04.452Z,17.07
2022-11-27T17:20:09.642Z,16.47
2022-11-27T17:25:15.458Z,16.53
2022-11-27T17:30:19.440Z,15.93
2022-11-27T17:35:27.864Z,14.83
2022-11-27T17:40:32.808Z,16.17
2022-11-27T17:45:41.354Z,15.90
2022-11-27T17:50:45.452Z,17.07
2022-11-27T17:55:55.568Z,18.13
2022-11-27T18:00:57.772Z,16.83
2022-11-27T18:06:06.656Z,16.07
2022-11-27T18:11:25.011Z,17.17
2022-11-27T18:16:32.603Z,18.03
2022-11-27T18:21:40.260Z,16.50
2022-11-27T18:32:08.797Z,13.77
2022-11-27T18:37:12.032Z,12.63
2022-11-27T18:42:17.047Z,13.63
2022-11-27T18:47:20.037Z,13.03
2022-11-27T18:52:24.238Z,12.80
2022-11-27T18:57:26.160Z,13.40
2022-11-27T19:02:30.483Z,11.90
2022-11-27T19:07:32.295Z,13.63
2022-11-27T19:12:36.488Z,12.67
2022-11-27T19:17:40.287Z,13.30
2022-11-27T19:22:42.361Z,12.63
2022-11-27T19:27:49.315Z,13.00
2022-11-27T19:32:51.168Z,13.43
2022-11-27T19:37:55.441Z,13.73
2022-11-27T19:43:00.971Z,13.70
2022-11-27T19:48:11.639Z,16.03
2022-11-27T19:53:13.451Z,15.83
2022-11-27T19:58:20.627Z,30.63
2022-11-27T20:03:22.660Z,15.93
2022-11-27T20:08:29.134Z,15.73
2022-11-27T20:13:31.316Z,15.63
2022-11-27T20:18:36.283Z,13.47
2022-11-27T20:23:41.968Z,12.07
2022-11-27T20:28:46.215Z,13.10
2022-11-27T20:33:52.022Z,12.43
2022-11-27T20:38:57.582Z,11.70
2022-11-27T20:44:04.581Z,11.37
2022-11-27T20:49:06.438Z,10.57
2022-11-27T20:54:09.326Z,10.87
2022-11-27T20:59:12.521Z,9.37
2022-11-27T21:04:24.058Z,10.40
2022-11-27T21:09:29.569Z,10.40
2022-11-27T21:14:33.770Z,9.80
2022-11-27T21:19:39.954Z,10.90
2022-11-27T21:24:44.251Z,9.70
2022-11-27T21:29:46.320Z,8.93
2022-11-27T21:34:53.855Z,10.13
2022-11-27T21:39:56.388Z,10.10
2022-11-27T21:44:59.208Z,10.30
2022-11-27T21:50:00.974Z,9.33
2022-11-27T21:55:05.601Z,9.43
2022-11-27T22:00:13.439Z,10.03
2022-11-27T22:05:21.629Z,10.23
2022-11-27T22:10:23.459Z,8.90
2022-11-27T22:15:27.413Z,9.60
2022-11-27T22:20:31.458Z,10.47
2022-11-27T22:25:35.587Z,9.53
2022-11-27T22:30:39.931Z,10.03
2022-11-27T22:35:44.134Z,9.67
2022-11-27T22:40:45.912Z,9.50
2022-11-27T22:45:50.163Z,9.37
2022-11-27T22:50:58.996Z,9.90
2022-11-27T22:56:06.855Z,8.90
2022-11-27T23:01:20.826Z,8.47
2022-11-27T23:06:26.315Z,8.40
2022-11-27T23:11:28.642Z,7.50
2022-11-27T23:16:33.543Z,7.23
2022-11-27T23:21:37.590Z,7.40
2022-11-27T23:26:41.963Z,7.63
2022-11-27T23:31:43.792Z,7.77
2022-11-27T23:36:50.359Z,7.80
2022-11-27T23:41:54.552Z,8.00
2022-11-27T23:46:58.625Z,7.60
2022-11-27T23:52:00.570Z,7.27
2022-11-27T23:57:03.315Z,8.27
